Time;durP1;ratioP1;P1;durP2;ratioP2;P2;SDS_P1;SDS_P2;PMS_P1;PMS_P2;Temp;Humidity;BMP_temperature;BMP_pressure;BME280_temperature;BME280_humidity;BME280_pressure;Samples;Min_cycle;Max_cycle;Signal;HPM_P1;HPM_P2
2024/03/09 00:01:34;;;;;;;;;;;;;;;;;;5068950;28;20049;-72
2024/03/09 00:04:01;;;;;;;39.75;22.55;;;;;;;;;;5058357;28;19924;-72
2024/03/09 00:06:27;;;;;;;41.78;22.15;;;;;;;;;;5066299;28;20044;-72
2024/03/09 00:08:54;;;;;;;38.47;22.05;;;;;;;;;;5047047;28;20074;-72
2024/03/09 00:11:20;;;;;;;40.78;22.95;;;;;;;;;;5060273;28;20042;-72
2024/03/09 00:13:47;;;;;;;35.45;21.33;;;;;;;;;;5062920;28;20060;-73
2024/03/09 00:16:13;;;;;;;40.38;23.25;;;;;;;;;;5060724;28;20053;-72
2024/03/09 00:18:41;;;;;;;37.72;22.33;;;;;;;;;;5063984;28;20052;-72
2024/03/09 00:21:11;;;;;;;39.15;21.67;;;;;;;;;;5058982;28;20416;-72
2024/03/09 00:23:37;;;;;;;37.72;20.67;;;;;;;;;;5060729;28;20145;-73
2024/03/09 00:26:05;;;;;;;39.08;21.10;;;;;;;;;;5055629;28;20040;-71
2024/03/09 00:28:32;;;;;;;39.28;22.48;;;;;;;;;;5061571;28;20052;-73
2024/03/09 00:30:59;;;;;;;35.53;20.60;;;;;;;;;;5052060;28;20048;-72
2024/03/09 00:33:26;;;;;;;37.55;21.40;;;;;;;;;;5055571;28;20153;-71
2024/03/09 00:35:54;;;;;;;36.42;21.38;;;;;;;;;;5068730;28;20055;-70
2024/03/09 00:38:20;;;;;;;41.28;22.65;;;;;;;;;;5057928;28;20139;-71
2024/03/09 00:40:47;;;;;;;37.08;21.23;;;;;;;;;;5064805;28;20102;-71
2024/03/09 00:43:13;;;;;;;40.20;23.35;;;;;;;;;;5063183;28;20118;-72
2024/03/09 00:45:39;;;;;;;39.65;22.05;;;;;;;;;;5061335;28;20562;-72
2024/03/09 00:48:07;;;;;;;37.28;21.42;;;;;;;;;;5066408;28;20072;-73
2024/03/09 00:50:34;;;;;;;41.67;21.93;;;;;;;;;;5062868;28;20056;-72
2024/03/09 00:53:00;;;;;;;39.78;23.00;;;;;;;;;;5062416;28;20493;-71
2024/03/09 00:55:27;;;;;;;38.80;22.10;;;;;;;;;;5062646;28;20043;-72
2024/03/09 00:57:53;;;;;;;38.05;21.88;;;;;;;;;;5065613;28;20705;-70
2024/03/09 01:00:23;;;;;;;35.92;20.13;;;;;;;;;;5071337;28;20047;-70
2024/03/09 01:02:50;;;;;;;40.17;22.92;;;;;;;;;;5058482;28;20075;-71
2024/03/09 01:05:22;;;;;;;35.55;20.65;;;;;;;;;;5063743;28;20056;-71
2024/03/09 01:07:49;;;;;;;42.53;23.40;;;;;;;;;;5054153;28;20693;-70
2024/03/09 01:10:16;;;;;;;41.10;22.95;;;;;;;;;;5063670;28;20594;-71
2024/03/09 01:12:43;;;;;;;39.78;22.55;;;;;;;;;;5063405;28;20128;-71
2024/03/09 01:15:09;;;;;;;41.38;22.40;;;;;;;;;;5060814;28;20460;-71
2024/03/09 01:17:36;;;;;;;36.30;20.70;;;;;;;;;;5065092;28;20844;-71
2024/03/09 01:20:06;;;;;;;45.03;22.83;;;;;;;;;;5053426;28;20049;-71
2024/03/09 01:22:33;;;;;;;38.95;22.02;;;;;;;;;;5059855;28;20049;-70
2024/03/09 01:25:00;;;;;;;40.00;22.95;;;;;;;;;;5060695;28;20803;-71
2024/03/09 01:27:26;;;;;;;35.72;21.23;;;;;;;;;;5065590;28;20433;-72
2024/03/09 01:29:58;;;;;;;38.08;20.70;;;;;;;;;;5058574;28;20052;-72
2024/03/09 01:32:25;;;;;;;40.47;23.08;;;;;;;;;;5061773;28;20061;-71
2024/03/09 01:34:52;;;;;;;41.17;22.40;;;;;;;;;;5062016;28;20071;-72
2024/03/09 01:37:20;;;;;;;38.28;21.60;;;;;;;;;;5057435;28;20607;-72
2024/03/09 01:39:47;;;;;;;41.80;22.73;;;;;;;;;;5065076;28;20055;-72
2024/03/09 01:42:18;;;;;;;42.65;23.23;;;;;;;;;;5065338;28;20040;-72
2024/03/09 01:44:49;;;;;;;34.58;20.75;;;;;;;;;;5060311;28;20133;-72
2024/03/09 01:47:21;;;;;;;40.60;23.05;;;;;;;;;;5060621;28;20084;-72
2024/03/09 01:49:49;;;;;;;38.33;21.33;;;;;;;;;;5053706;28;20523;-73
2024/03/09 01:52:16;;;;;;;38.53;22.33;;;;;;;;;;5062743;28;21138;-72
2024/03/09 01:54:45;;;;;;;34.53;20.45;;;;;;;;;;5060553;28;20580;-72
2024/03/09 01:57:13;;;;;;;38.05;22.00;;;;;;;;;;5067083;28;20059;-72
2024/03/09 01:59:46;;;;;;;34.40;20.40;;;;;;;;;;5064870;28;20487;-72
2024/03/09 02:02:13;;;;;;;41.42;23.30;;;;;;;;;;5056108;28;20094;-72
2024/03/09 02:04:41;;;;;;;42.20;24.33;;;;;;;;;;5064343;28;20066;-72
2024/03/09 02:07:07;;;;;;;42.17;23.27;;;;;;;;;;5060981;28;20131;-73
2024/03/09 02:09:34;;;;;;;40.33;22.52;;;;;;;;;;5062094;28;20048;-73
2024/03/09 02:12:06;;;;;;;31.17;18.45;;;;;;;;;;5064269;28;20053;-72
2024/03/09 02:14:36;;;;;;;40.10;22.23;;;;;;;;;;5060818;28;20049;-72
2024/03/09 02:17:09;;;;;;;41.97;22.30;;;;;;;;;;5062915;28;20523;-72
2024/03/09 02:19:37;;;;;;;38.83;22.65;;;;;;;;;;5061164;28;20098;-73
2024/03/09 02:22:05;;;;;;;;;;;;;;;;;;5063122;28;20170;-71
2024/03/09 02:24:35;;;;;;;39.95;23.08;;;;;;;;;;5058773;28;20288;-72
2024/03/09 02:27:01;;;;;;;39.72;22.63;;;;;;;;;;5066234;28;20656;-73
2024/03/09 02:29:28;;;;;;;40.33;22.45;;;;;;;;;;5068623;28;20053;-72
2024/03/09 02:31:55;;;;;;;39.95;21.25;;;;;;;;;;5054505;28;20137;-72
2024/03/09 02:34:22;;;;;;;39.03;23.23;;;;;;;;;;5058014;28;20059;-70
2024/03/09 02:36:48;;;;;;;42.10;22.52;;;;;;;;;;5058006;28;20155;-69
2024/03/09 02:39:15;;;;;;;41.97;23.20;;;;;;;;;;5065909;28;20057;-71
2024/03/09 02:41:41;;;;;;;39.63;22.58;;;;;;;;;;5063121;28;20086;-71
2024/03/09 02:44:11;;;;;;;41.85;23.33;;;;;;;;;;5059519;28;20079;-71
2024/03/09 02:46:37;;;;;;;40.72;22.23;;;;;;;;;;5060209;28;20044;-72
2024/03/09 02:49:05;;;;;;;36.22;22.67;;;;;;;;;;5057317;28;20817;-70
2024/03/09 02:51:32;;;;;;;39.22;22.92;;;;;;;;;;5060203;28;20052;-70
2024/03/09 02:53:59;;;;;;;41.10;21.48;;;;;;;;;;5059430;28;20436;-70
2024/03/09 02:56:25;;;;;;;36.25;21.10;;;;;;;;;;5064154;28;20625;-71
2024/03/09 02:58:51;;;;;;;42.40;22.98;;;;;;;;;;5063712;28;20041;-72
2024/03/09 03:01:18;;;;;;;39.95;22.23;;;;;;;;;;5053707;28;20067;-71
2024/03/09 03:03:58;;;;;;;40.35;23.00;;;;;;;;;;5061315;28;20492;-70
2024/03/09 03:06:27;;;;;;;41.00;23.00;;;;;;;;;;5057486;28;20093;-73
2024/03/09 03:08:59;;;;;;;39.70;22.17;;;;;;;;;;5063767;28;20048;-72
2024/03/09 03:11:25;;;;;;;46.35;22.00;;;;;;;;;;5064341;28;20082;-71
2024/03/09 03:13:54;;;;;;;41.13;23.17;;;;;;;;;;5049464;28;20041;-73
2024/03/09 03:16:26;;;;;;;38.90;21.27;;;;;;;;;;5061892;28;20047;-72
2024/03/09 03:18:53;;;;;;;43.88;22.38;;;;;;;;;;5056815;28;20112;-72
2024/03/09 03:21:20;;;;;;;37.25;21.25;;;;;;;;;;5065042;28;20044;-70
2024/03/09 03:23:49;;;;;;;38.83;21.48;;;;;;;;;;5057103;28;20048;-72
2024/03/09 03:26:16;;;;;;;43.17;23.80;;;;;;;;;;5065007;28;20048;-71
2024/03/09 03:28:50;;;;;;;42.97;23.52;;;;;;;;;;5063255;28;20137;-72
2024/03/09 03:31:21;;;;;;;40.00;22.27;;;;;;;;;;5053913;28;20139;-71
2024/03/09 03:33:49;;;;;;;36.92;20.75;;;;;;;;;;5062817;28;20181;-71
2024/03/09 03:36:19;;;;;;;41.30;22.40;;;;;;;;;;5058776;28;20056;-71
2024/03/09 03:38:47;;;;;;;39.88;21.25;;;;;;;;;;5065250;28;20062;-71
2024/03/09 03:41:17;;;;;;;40.00;22.33;;;;;;;;;;5063505;28;20711;-74
2024/03/09 03:43:44;;;;;;;37.25;21.38;;;;;;;;;;5058553;28;20048;-72
2024/03/09 03:46:12;;;;;;;38.92;21.30;;;;;;;;;;5058821;28;20147;-71
2024/03/09 03:48:44;;;;;;;41.17;22.08;;;;;;;;;;5058802;28;20044;-71
2024/03/09 03:51:15;;;;;;;41.17;22.42;;;;;;;;;;5063494;28;20109;-70
2024/03/09 03:53:42;;;;;;;38.53;21.60;;;;;;;;;;5056128;28;20047;-73
2024/03/09 03:56:09;;;;;;;38.47;22.20;;;;;;;;;;5061111;28;20122;-73
2024/03/09 03:58:37;;;;;;;39.72;21.27;;;;;;;;;;5054150;28;20045;-70
2024/03/09 04:01:04;;;;;;;38.22;20.42;;;;;;;;;;5057406;28;20044;-72
2024/03/09 04:03:31;;;;;;;41.90;22.90;;;;;;;;;;5064032;28;20048;-72
2024/03/09 04:05:58;;;;;;;41.83;22.90;;;;;;;;;;5057733;28;20041;-73
2024/03/09 04:08:25;;;;;;;35.47;20.13;;;;;;;;;;5065955;28;20447;-72
2024/03/09 04:10:52;;;;;;;37.45;21.17;;;;;;;;;;5061371;28;20106;-72
2024/03/09 04:13:23;;;;;;;41.65;23.67;;;;;;;;;;5053571;28;20044;-72
2024/03/09 04:15:55;;;;;;;41.05;22.45;;;;;;;;;;5067225;28;20045;-72
2024/03/09 04:18:21;;;;;;;34.85;20.65;;;;;;;;;;5060015;28;20705;-71
2024/03/09 04:20:48;;;;;;;35.80;21.60;;;;;;;;;;5066616;28;20044;-72
2024/03/09 04:23:18;;;;;;;35.80;20.50;;;;;;;;;;5059678;28;20428;-71
2024/03/09 04:25:46;;;;;;;42.35;22.98;;;;;;;;;;5063962;28;20595;-71
2024/03/09 04:28:16;;;;;;;42.00;21.88;;;;;;;;;;5060411;28;20137;-71
2024/03/09 04:30:43;;;;;;;42.97;22.70;;;;;;;;;;5057835;28;20143;-72
2024/03/09 04:33:11;;;;;;;37.80;21.23;;;;;;;;;;5062750;28;20060;-71
2024/03/09 04:35:38;;;;;;;40.20;22.75;;;;;;;;;;5061870;28;20048;-72
2024/03/09 04:38:05;;;;;;;38.25;21.15;;;;;;;;;;5067692;28;20052;-71
2024/03/09 04:40:35;;;;;;;39.10;22.20;;;;;;;;;;5064865;28;20056;-71
2024/03/09 04:43:03;;;;;;;35.53;20.58;;;;;;;;;;5059081;28;20063;-71
2024/03/09 04:45:31;;;;;;;36.58;20.50;;;;;;;;;;5069348;28;20044;-73
2024/03/09 04:48:01;;;;;;;39.55;21.67;;;;;;;;;;5066638;28;20755;-72
2024/03/09 04:50:28;;;;;;;41.55;22.13;;;;;;;;;;5069324;28;20072;-71
2024/03/09 04:52:55;;;;;;;41.42;22.98;;;;;;;;;;5059646;28;20116;-73
2024/03/09 04:55:26;;;;;;;44.03;21.35;;;;;;;;;;5066958;28;20040;-72
2024/03/09 04:57:55;;;;;;;37.35;21.27;;;;;;;;;;5063652;28;20051;-71
2024/03/09 05:00:24;;;;;;;39.83;23.15;;;;;;;;;;5063491;28;20059;-74
2024/03/09 05:02:51;;;;;;;38.80;20.95;;;;;;;;;;5061402;28;20087;-72
2024/03/09 05:05:18;;;;;;;35.42;20.38;;;;;;;;;;5064363;28;20136;-72
2024/03/09 05:07:48;;;;;;;35.50;21.42;;;;;;;;;;5067262;28;20110;-69
2024/03/09 05:10:18;;;;;;;36.92;22.05;;;;;;;;;;5070152;28;20052;-69
2024/03/09 05:12:54;;;;;;;35.80;20.13;;;;;;;;;;5062056;28;20143;-72
2024/03/09 05:15:20;;;;;;;37.53;21.90;;;;;;;;;;5070241;28;20123;-72
2024/03/09 05:17:47;;;;;;;38.13;20.02;;;;;;;;;;5066088;28;20114;-73
2024/03/09 05:20:22;;;;;;;37.03;20.25;;;;;;;;;;5064219;28;20473;-72
2024/03/09 05:22:50;;;;;;;28.88;17.27;;;;;;;;;;5058775;28;20059;-73
2024/03/09 05:25:17;;;;;;;35.10;21.38;;;;;;;;;;5066783;28;20119;-73
2024/03/09 05:27:43;;;;;;;37.90;22.00;;;;;;;;;;5066522;28;20102;-71
2024/03/09 05:30:15;;;;;;;37.92;20.75;;;;;;;;;;5058610;28;20056;-70
2024/03/09 05:32:42;;;;;;;41.08;22.65;;;;;;;;;;5066882;28;20068;-71
2024/03/09 05:35:13;;;;;;;38.20;22.05;;;;;;;;;;5058712;28;20479;-70
2024/03/09 05:37:40;;;;;;;41.45;22.30;;;;;;;;;;5063594;28;20432;-71
2024/03/09 05:40:09;;;;;;;36.95;21.23;;;;;;;;;;5067048;28;20129;-70
2024/03/09 05:42:36;;;;;;;36.33;20.75;;;;;;;;;;5060699;28;20044;-72
2024/03/09 05:45:04;;;;;;;37.33;20.85;;;;;;;;;;5067457;28;20519;-70
2024/03/09 05:47:31;;;;;;;43.22;22.20;;;;;;;;;;5056668;28;20053;-72
2024/03/09 05:49:57;;;;;;;41.50;21.42;;;;;;;;;;5058637;28;20056;-73
2024/03/09 05:52:25;;;;;;;39.15;21.27;;;;;;;;;;5058074;28;20397;-72
2024/03/09 05:54:52;;;;;;;37.88;21.30;;;;;;;;;;5064174;28;20058;-71
2024/03/09 05:57:22;;;;;;;37.22;20.85;;;;;;;;;;5065053;28;20578;-72
2024/03/09 05:59:49;;;;;;;42.90;21.55;;;;;;;;;;5059022;28;20056;-72
2024/03/09 06:02:16;;;;;;;35.35;19.85;;;;;;;;;;5062419;28;20128;-71
2024/03/09 06:04:42;;;;;;;36.88;20.17;;;;;;;;;;5056861;28;20709;-71
2024/03/09 06:07:09;;;;;;;39.38;21.33;;;;;;;;;;5068743;28;20473;-72
2024/03/09 06:09:35;;;;;;;39.17;21.95;;;;;;;;;;5066321;28;20044;-72
2024/03/09 06:12:02;;;;;;;40.05;21.25;;;;;;;;;;5060438;28;20566;-72
2024/03/09 06:14:28;;;;;;;38.35;21.27;;;;;;;;;;5067394;28;20057;-71
2024/03/09 06:16:55;;;;;;;32.60;19.75;;;;;;;;;;5056922;28;20052;-72
2024/03/09 06:19:21;;;;;;;37.35;22.02;;;;;;;;;;5064219;28;20057;-70
2024/03/09 06:21:50;;;;;;;39.05;21.23;;;;;;;;;;5065222;28;20060;-72
2024/03/09 06:24:16;;;;;;;36.47;20.20;;;;;;;;;;5054459;28;21422;-72
2024/03/09 06:26:43;;;;;;;36.63;20.80;;;;;;;;;;5063420;28;20051;-73
2024/03/09 06:29:10;;;;;;;38.40;21.10;;;;;;;;;;5055072;28;20710;-73
2024/03/09 06:31:37;;;;;;;36.08;21.00;;;;;;;;;;5065475;28;20056;-73
2024/03/09 06:34:03;;;;;;;38.63;22.13;;;;;;;;;;5058707;28;20682;-71
2024/03/09 06:36:30;;;;;;;36.00;20.70;;;;;;;;;;5064091;28;20075;-71
2024/03/09 06:38:56;;;;;;;35.60;20.15;;;;;;;;;;5065214;28;20075;-73
2024/03/09 06:41:22;;;;;;;37.72;20.88;;;;;;;;;;5054995;28;20458;-71
2024/03/09 06:43:52;;;;;;;34.70;21.23;;;;;;;;;;5059045;28;20568;-73
2024/03/09 06:46:18;;;;;;;35.35;20.73;;;;;;;;;;5058694;28;20045;-72
2024/03/09 06:48:45;;;;;;;36.38;19.55;;;;;;;;;;5064087;28;20102;-71
2024/03/09 06:51:13;;;;;;;38.90;21.15;;;;;;;;;;5064448;28;20365;-71
2024/03/09 06:53:40;;;;;;;34.13;20.58;;;;;;;;;;5058635;28;21310;-72
2024/03/09 06:56:07;;;;;;;33.80;20.85;;;;;;;;;;5061239;28;20098;-71
2024/03/09 06:58:34;;;;;;;31.52;18.88;;;;;;;;;;5056469;28;20065;-71
2024/03/09 07:01:01;;;;;;;34.17;19.98;;;;;;;;;;5066715;28;20531;-71
2024/03/09 07:03:27;;;;;;;31.63;18.90;;;;;;;;;;5056699;28;20048;-72
2024/03/09 07:05:54;;;;;;;31.50;19.98;;;;;;;;;;5063288;28;20753;-72
2024/03/09 07:08:21;;;;;;;34.05;20.17;;;;;;;;;;5065555;28;20062;-72
2024/03/09 07:10:48;;;;;;;32.10;18.52;;;;;;;;;;5054717;28;20052;-73
2024/03/09 07:13:15;;;;;;;31.88;18.55;;;;;;;;;;5058134;28;20045;-72
2024/03/09 07:15:41;;;;;;;33.90;19.80;;;;;;;;;;5059070;28;20041;-72
2024/03/09 07:18:08;;;;;;;31.65;17.77;;;;;;;;;;5064266;28;20483;-73
2024/03/09 07:20:38;;;;;;;35.75;19.83;;;;;;;;;;5067745;28;20052;-73
2024/03/09 07:23:06;;;;;;;33.67;19.05;;;;;;;;;;5061202;28;20056;-72
2024/03/09 07:25:32;;;;;;;34.87;19.00;;;;;;;;;;5055800;28;20508;-71
2024/03/09 07:27:59;;;;;;;31.40;19.02;;;;;;;;;;5052550;28;20281;-71
2024/03/09 07:30:26;;;;;;;30.77;18.30;;;;;;;;;;5060547;28;20049;-71
2024/03/09 07:32:53;;;;;;;30.98;17.20;;;;;;;;;;5063221;28;20059;-72
2024/03/09 07:35:25;;;;;;;30.17;18.83;;;;;;;;;;5059776;28;20554;-73
2024/03/09 07:37:53;;;;;;;35.28;19.88;;;;;;;;;;5063489;28;20044;-73
2024/03/09 07:40:22;;;;;;;34.05;19.40;;;;;;;;;;5055140;28;20518;-73
2024/03/09 07:42:48;;;;;;;32.13;17.30;;;;;;;;;;5056262;28;20063;-73
2024/03/09 07:45:15;;;;;;;37.28;19.35;;;;;;;;;;5059513;28;20053;-73
2024/03/09 07:47:43;;;;;;;32.55;19.15;;;;;;;;;;5064678;28;20037;-71
2024/03/09 07:50:14;;;;;;;35.77;19.77;;;;;;;;;;5065433;28;20114;-72
2024/03/09 07:52:48;;;;;;;37.28;20.83;;;;;;;;;;5053769;28;20048;-73
2024/03/09 07:55:16;;;;;;;32.30;19.20;;;;;;;;;;5058709;28;20047;-72
2024/03/09 07:57:53;;;;;;;32.85;18.90;;;;;;;;;;5063171;28;20496;-73
2024/03/09 08:00:35;;;;;;;32.28;18.67;;;;;;;;;;5064596;28;20076;-71
2024/03/09 08:03:02;;;;;;;35.80;19.60;;;;;;;;;;5055575;28;20044;-70
2024/03/09 08:05:29;;;;;;;27.38;16.70;;;;;;;;;;5061855;28;20052;-71
2024/03/09 08:07:55;;;;;;;32.90;19.88;;;;;;;;;;5057758;28;20052;-73
2024/03/09 08:10:23;;;;;;;31.88;19.52;;;;;;;;;;5054886;28;20053;-73
2024/03/09 08:12:50;;;;;;;29.50;17.83;;;;;;;;;;5060823;28;20049;-74
2024/03/09 08:15:16;;;;;;;32.33;18.75;;;;;;;;;;5056036;28;20044;-70
2024/03/09 08:17:43;;;;;;;33.35;20.08;;;;;;;;;;5063489;28;20052;-70
2024/03/09 08:20:14;;;;;;;31.05;19.50;;;;;;;;;;5057113;28;20057;-73
2024/03/09 08:22:41;;;;;;;32.83;19.77;;;;;;;;;;5055218;28;20056;-73
2024/03/09 08:25:11;;;;;;;32.30;18.40;;;;;;;;;;5060680;28;20053;-73
2024/03/09 08:27:38;;;;;;;25.73;15.00;;;;;;;;;;5058152;28;20058;-73
2024/03/09 08:30:05;;;;;;;38.50;20.13;;;;;;;;;;5065066;28;20090;-73
2024/03/09 08:32:32;;;;;;;27.00;17.55;;;;;;;;;;5058360;28;20406;-73
2024/03/09 08:34:59;;;;;;;32.33;19.38;;;;;;;;;;5063830;28;20114;-73
2024/03/09 08:37:27;;;;;;;26.42;16.65;;;;;;;;;;5056705;28;20057;-73
2024/03/09 08:39:54;;;;;;;32.47;18.42;;;;;;;;;;5056694;28;20064;-72
2024/03/09 08:42:20;;;;;;;34.28;18.85;;;;;;;;;;5063942;28;20066;-74
2024/03/09 08:44:48;;;;;;;32.40;19.73;;;;;;;;;;5054182;28;20112;-73
2024/03/09 08:47:15;;;;;;;29.75;18.73;;;;;;;;;;5061939;28;20052;-72
2024/03/09 08:49:43;;;;;;;29.83;17.58;;;;;;;;;;5061360;28;20052;-73
2024/03/09 08:52:13;;;;;;;32.63;18.80;;;;;;;;;;5054283;28;20600;-73
2024/03/09 08:54:44;;;;;;;32.92;17.50;;;;;;;;;;5062158;28;20447;-73
2024/03/09 08:57:11;;;;;;;27.92;15.77;;;;;;;;;;5058113;28;20082;-73
2024/03/09 08:59:41;;;;;;;28.63;18.10;;;;;;;;;;5064266;28;20054;-73
2024/03/09 09:02:07;;;;;;;32.15;17.40;;;;;;;;;;5063176;28;20097;-72
2024/03/09 09:04:37;;;;;;;29.92;18.20;;;;;;;;;;5056220;28;20166;-74
2024/03/09 09:07:06;;;;;;;29.30;17.10;;;;;;;;;;5067409;28;20496;-70
2024/03/09 09:09:33;;;;;;;26.90;16.92;;;;;;;;;;5060631;28;20135;-73
2024/03/09 09:11:59;;;;;;;26.38;16.55;;;;;;;;;;5066881;28;20052;-71
2024/03/09 09:14:27;;;;;;;26.65;17.00;;;;;;;;;;5063600;28;20052;-74
2024/03/09 09:16:53;;;;;;;29.85;17.90;;;;;;;;;;5065104;28;20127;-74
2024/03/09 09:19:23;;;;;;;37.95;17.92;;;;;;;;;;5059684;28;20041;-73
2024/03/09 09:21:49;;;;;;;31.45;18.63;;;;;;;;;;5054365;28;20053;-75
2024/03/09 09:24:16;;;;;;;24.58;14.50;;;;;;;;;;5064466;28;20048;-73
2024/03/09 09:26:43;;;;;;;26.67;14.73;;;;;;;;;;5062089;28;20573;-74
2024/03/09 09:29:10;;;;;;;25.48;15.65;;;;;;;;;;5065697;28;20169;-72
2024/03/09 09:31:37;;;;;;;25.02;15.13;;;;;;;;;;5062250;28;20074;-72
2024/03/09 09:34:04;;;;;;;23.67;14.32;;;;;;;;;;5057609;28;20047;-72
2024/03/09 09:36:30;;;;;;;24.52;14.70;;;;;;;;;;5066279;28;20064;-71
2024/03/09 09:38:58;;;;;;;23.80;15.48;;;;;;;;;;5059731;28;20101;-72
2024/03/09 09:41:27;;;;;;;23.55;14.32;;;;;;;;;;5064996;28;20059;-73
2024/03/09 09:43:56;;;;;;;26.90;15.73;;;;;;;;;;5053181;28;20139;-72
2024/03/09 09:46:23;;;;;;;23.77;14.50;;;;;;;;;;5064910;28;20048;-72
2024/03/09 09:48:52;;;;;;;22.90;12.52;;;;;;;;;;5062875;28;20116;-73
2024/03/09 09:51:20;;;;;;;;;;;;;;;;;;5057973;28;20138;-72
2024/03/09 09:53:49;;;;;;;24.03;14.07;;;;;;;;;;5067086;28;20019;-72
2024/03/09 09:56:15;;;;;;;24.70;15.15;;;;;;;;;;5058302;28;20295;-71
2024/03/09 09:58:42;;;;;;;23.92;14.45;;;;;;;;;;5064705;28;20052;-72
2024/03/09 10:01:09;;;;;;;28.02;16.77;;;;;;;;;;5062652;28;20057;-72
2024/03/09 10:03:36;;;;;;;26.58;15.48;;;;;;;;;;5058624;28;20773;-72
2024/03/09 10:06:16;;;;;;;25.20;14.70;;;;;;;;;;5063943;28;20045;-72
2024/03/09 10:08:47;;;;;;;22.35;14.68;;;;;;;;;;5057834;28;20048;-71
2024/03/09 10:11:14;;;;;;;23.77;15.20;;;;;;;;;;5060662;28;20052;-72
2024/03/09 10:13:40;;;;;;;22.23;14.63;;;;;;;;;;5057729;28;20052;-73
2024/03/09 10:16:06;;;;;;;29.60;16.45;;;;;;;;;;5065169;28;20054;-72
2024/03/09 10:18:33;;;;;;;27.25;16.30;;;;;;;;;;5068258;28;20052;-72
2024/03/09 10:21:02;;;;;;;26.17;14.73;;;;;;;;;;5060598;28;20040;-73
2024/03/09 10:23:29;;;;;;;;;;;;;;;;;;5062344;28;20044;-72
2024/03/09 10:26:03;;;;;;;26.35;13.52;;;;;;;;;;5059098;28;20034;-72
2024/03/09 10:28:29;;;;;;;22.40;14.52;;;;;;;;;;5065618;28;20109;-72
2024/03/09 10:31:01;;;;;;;25.20;15.07;;;;;;;;;;5064738;28;20063;-71
2024/03/09 10:33:28;;;;;;;18.95;13.07;;;;;;;;;;5059352;28;20060;-72
2024/03/09 10:35:57;;;;;;;23.17;13.82;;;;;;;;;;5063537;28;20503;-72
2024/03/09 10:38:27;;;;;;;22.45;14.35;;;;;;;;;;5055568;28;20063;-72
2024/03/09 10:41:00;;;;;;;21.63;13.82;;;;;;;;;;5060695;28;20048;-73
2024/03/09 10:43:29;;;;;;;21.08;13.32;;;;;;;;;;5053997;28;20045;-72
2024/03/09 10:45:57;;;;;;;24.10;14.98;;;;;;;;;;5063479;28;20090;-73
2024/03/09 10:48:26;;;;;;;23.83;14.90;;;;;;;;;;5065711;28;20168;-73
2024/03/09 10:51:14;;;;;;;25.58;15.82;;;;;;;;;;5059123;28;20472;-74
2024/03/09 10:54:06;;;;;;;21.55;12.95;;;;;;;;;;5057267;28;20159;-72
2024/03/09 10:56:32;;;;;;;20.75;14.15;;;;;;;;;;5057233;28;20052;-73
2024/03/09 10:59:03;;;;;;;20.48;13.45;;;;;;;;;;5064179;28;20044;-73
2024/03/09 11:01:29;;;;;;;22.13;14.73;;;;;;;;;;5058379;28;20112;-73
2024/03/09 11:03:59;;;;;;;22.55;14.32;;;;;;;;;;5062669;28;20089;-74
2024/03/09 11:06:28;;;;;;;21.88;14.23;;;;;;;;;;5061723;28;20047;-74
2024/03/09 11:08:56;;;;;;;23.33;14.85;;;;;;;;;;5050582;28;20077;-73
2024/03/09 11:11:24;;;;;;;20.63;13.23;;;;;;;;;;5064039;28;20055;-73
2024/03/09 11:13:51;;;;;;;23.43;13.77;;;;;;;;;;5055325;28;20048;-73
2024/03/09 11:16:19;;;;;;;23.38;15.02;;;;;;;;;;5064018;28;20552;-72
2024/03/09 11:18:55;;;;;;;19.25;13.00;;;;;;;;;;5058438;28;20037;-74
2024/03/09 11:21:29;;;;;;;20.33;13.77;;;;;;;;;;5054214;28;20170;-72
2024/03/09 11:23:59;;;;;;;22.50;14.52;;;;;;;;;;5055246;28;20044;-72
2024/03/09 11:26:27;;;;;;;20.70;14.20;;;;;;;;;;5056048;28;20757;-72
2024/03/09 11:28:55;;;;;;;19.65;12.48;;;;;;;;;;5067307;28;20385;-73
2024/03/09 11:31:28;;;;;;;21.88;13.35;;;;;;;;;;5056749;28;20098;-73
2024/03/09 11:33:58;;;;;;;21.33;14.13;;;;;;;;;;5053743;28;20048;-73
2024/03/09 11:36:38;;;;;;;24.20;14.63;;;;;;;;;;5063385;28;20057;-73
2024/03/09 11:39:05;;;;;;;22.48;13.73;;;;;;;;;;5051667;28;20497;-73
2024/03/09 11:41:32;;;;;;;22.15;13.65;;;;;;;;;;5060138;28;20048;-73
2024/03/09 11:43:59;;;;;;;19.00;13.43;;;;;;;;;;5057612;28;20048;-73
2024/03/09 11:46:29;;;;;;;21.52;13.27;;;;;;;;;;5063404;28;20485;-73
2024/03/09 11:48:56;;;;;;;18.98;12.95;;;;;;;;;;5050674;28;20615;-73
2024/03/09 11:51:24;;;;;;;20.55;13.55;;;;;;;;;;5053882;28;20059;-74
2024/03/09 11:53:51;;;;;;;20.88;13.02;;;;;;;;;;5059731;28;20481;-73
2024/03/09 11:56:17;;;;;;;20.63;13.45;;;;;;;;;;5054465;28;20148;-73
2024/03/09 11:58:44;;;;;;;22.52;13.40;;;;;;;;;;5058558;28;20392;-73
2024/03/09 12:01:13;;;;;;;20.90;13.80;;;;;;;;;;5057417;28;20062;-73
2024/03/09 12:03:40;;;;;;;22.65;13.13;;;;;;;;;;5055057;28;20191;-73
2024/03/09 12:06:06;;;;;;;20.35;14.00;;;;;;;;;;5058776;28;20640;-72
2024/03/09 12:08:33;;;;;;;21.08;14.07;;;;;;;;;;5055720;28;20078;-74
2024/03/09 12:11:00;;;;;;;18.08;11.90;;;;;;;;;;5062619;28;20534;-73
2024/03/09 12:13:26;;;;;;;19.60;12.75;;;;;;;;;;5056522;28;20525;-74
2024/03/09 12:15:53;;;;;;;19.90;13.13;;;;;;;;;;5061164;28;20680;-73
2024/03/09 12:18:19;;;;;;;20.60;13.43;;;;;;;;;;5054625;28;20128;-73
2024/03/09 12:20:47;;;;;;;21.90;14.48;;;;;;;;;;5057731;28;20080;-73
2024/03/09 12:23:19;;;;;;;21.92;14.45;;;;;;;;;;5059352;28;20771;-73
2024/03/09 12:25:46;;;;;;;18.55;12.65;;;;;;;;;;5053917;28;20059;-73
2024/03/09 12:28:16;;;;;;;18.77;13.05;;;;;;;;;;5059737;28;20147;-73
2024/03/09 12:30:48;;;;;;;18.45;12.57;;;;;;;;;;5055436;28;20048;-73
2024/03/09 12:33:14;;;;;;;21.00;12.35;;;;;;;;;;5057850;28;20074;-73
2024/03/09 12:35:42;;;;;;;20.83;13.48;;;;;;;;;;5061149;28;20048;-73
2024/03/09 12:38:11;;;;;;;17.90;12.35;;;;;;;;;;5058094;28;20045;-73
2024/03/09 12:40:42;;;;;;;19.98;12.77;;;;;;;;;;5059759;28;20049;-73
2024/03/09 12:43:09;;;;;;;20.42;12.77;;;;;;;;;;5055612;28;20133;-74
2024/03/09 12:45:36;;;;;;;19.15;13.13;;;;;;;;;;5065005;28;20084;-74
2024/03/09 12:48:03;;;;;;;16.40;11.40;;;;;;;;;;5057401;28;20057;-73
2024/03/09 12:50:31;;;;;;;19.38;13.45;;;;;;;;;;5065200;28;20082;-73
2024/03/09 12:53:00;;;;;;;19.08;11.65;;;;;;;;;;5064584;28;20048;-73
2024/03/09 12:55:28;;;;;;;17.95;11.82;;;;;;;;;;5056521;28;20648;-72
2024/03/09 12:57:59;;;;;;;19.30;11.45;;;;;;;;;;5061913;28;20146;-73
2024/03/09 13:00:28;;;;;;;20.48;12.77;;;;;;;;;;5061749;28;20052;-73
2024/03/09 13:02:54;;;;;;;20.80;14.40;;;;;;;;;;5064674;28;20056;-73
2024/03/09 13:05:24;;;;;;;18.17;11.85;;;;;;;;;;5067133;28;20110;-73
2024/03/09 13:07:51;;;;;;;19.23;12.85;;;;;;;;;;5056184;28;20056;-73
2024/03/09 13:10:19;;;;;;;19.67;12.60;;;;;;;;;;5063250;28;20105;-73
2024/03/09 13:12:47;;;;;;;18.50;12.43;;;;;;;;;;5049299;28;20072;-73
2024/03/09 13:15:18;;;;;;;16.75;12.13;;;;;;;;;;5067382;28;20808;-71
2024/03/09 13:17:45;;;;;;;13.95;10.18;;;;;;;;;;5066237;28;20061;-73
2024/03/09 13:20:17;;;;;;;17.15;12.15;;;;;;;;;;5062256;28;20168;-73
2024/03/09 13:22:44;;;;;;;21.67;13.43;;;;;;;;;;5061771;28;20126;-72
2024/03/09 13:25:11;;;;;;;20.10;13.48;;;;;;;;;;5059463;28;20094;-72
2024/03/09 13:27:38;;;;;;;17.05;11.85;;;;;;;;;;5063727;28;20526;-73
2024/03/09 13:30:17;;;;;;;17.38;11.63;;;;;;;;;;5054103;28;20063;-73
2024/03/09 13:32:44;;;;;;;18.23;12.05;;;;;;;;;;5060232;28;20080;-73
2024/03/09 13:35:12;;;;;;;18.33;12.85;;;;;;;;;;5062494;28;20088;-73
2024/03/09 13:37:40;;;;;;;20.73;12.63;;;;;;;;;;5058349;28;20052;-74
2024/03/09 13:40:07;;;;;;;18.33;12.70;;;;;;;;;;5062473;28;20059;-72
2024/03/09 13:42:34;;;;;;;16.57;11.83;;;;;;;;;;5060821;28;20065;-73
2024/03/09 13:45:03;;;;;;;18.38;12.40;;;;;;;;;;5060088;28;20368;-73
2024/03/09 13:47:30;;;;;;;18.75;13.02;;;;;;;;;;5063582;28;20420;-74
2024/03/09 13:49:57;;;;;;;19.40;12.63;;;;;;;;;;5053323;28;20938;-73
2024/03/09 13:52:24;;;;;;;21.13;13.30;;;;;;;;;;5060482;28;20052;-73
2024/03/09 13:54:51;;;;;;;18.63;13.70;;;;;;;;;;5060013;28;20131;-73
2024/03/09 13:57:18;;;;;;;20.77;14.40;;;;;;;;;;5067269;28;20057;-73
2024/03/09 13:59:44;;;;;;;20.35;13.82;;;;;;;;;;5056474;28;20094;-73
2024/03/09 14:02:14;;;;;;;17.55;12.02;;;;;;;;;;5065368;28;20786;-73
2024/03/09 14:04:41;;;;;;;17.65;12.27;;;;;;;;;;5063981;28;20044;-73
2024/03/09 14:07:08;;;;;;;19.27;12.57;;;;;;;;;;5053725;28;20048;-73
2024/03/09 14:09:45;;;;;;;15.88;10.52;;;;;;;;;;5065123;28;20052;-74
2024/03/09 14:12:13;;;;;;;16.38;11.82;;;;;;;;;;5057651;28;20060;-73
2024/03/09 14:14:39;;;;;;;15.25;10.80;;;;;;;;;;5063197;28;20607;-74
2024/03/09 14:17:09;;;;;;;18.63;11.43;;;;;;;;;;5066334;28;20050;-74
2024/03/09 14:19:38;;;;;;;14.73;10.43;;;;;;;;;;5052960;28;20491;-73
2024/03/09 14:22:05;;;;;;;14.60;10.32;;;;;;;;;;5062112;28;20063;-72
2024/03/09 14:24:31;;;;;;;15.23;10.57;;;;;;;;;;5058234;28;20147;-72